Time;durP1;ratioP1;P1;durP2;ratioP2;P2;SDS_P1;SDS_P2;PMS_P1;PMS_P2;Temp;Humidity;BMP_temperature;BMP_pressure;BME280_temperature;BME280_humidity;BME280_pressure;Samples;Min_cycle;Max_cycle;Signal;HPM_P1;HPM_P2
2022/03/19 00:01:03;;;;;;;49.00;19.30;;;;;;;-0.50;45.85;97061.16;4992545;28;20029;-83
2022/03/19 00:03:29;;;;;;;42.78;17.80;;;;;;;0.53;46.71;97232.13;4992356;28;20064;-83
2022/03/19 00:05:54;;;;;;;41.50;16.75;;;;;;;0.44;46.68;97201.75;4993545;28;20495;-83
2022/03/19 00:08:20;;;;;;;46.55;17.83;;;;;;;0.52;47.01;97225.25;4990869;28;20076;-83
2022/03/19 00:10:46;;;;;;;43.90;17.50;;;;;;;-0.41;46.77;97077.66;4994826;28;20034;-83
2022/03/19 00:13:12;;;;;;;46.05;17.13;;;;;;;-0.26;46.92;97115.16;4988004;28;20034;-83
2022/03/19 00:15:38;;;;;;;39.35;15.95;;;;;;;-0.03;47.13;97152.72;4974433;28;20030;-82
2022/03/19 00:18:05;;;;;;;41.25;15.43;;;;;;;-1.53;47.75;96927.81;4983096;28;20510;-82
2022/03/19 00:20:32;;;;;;;40.00;16.02;;;;;;;0.35;48.17;97241.84;4964496;28;20033;-83
2022/03/19 00:22:57;;;;;;;37.30;14.55;;;;;;;0.42;47.43;97223.75;4974379;28;20038;-83
2022/03/19 00:25:23;;;;;;;41.67;14.23;;;;;;;0.44;47.55;97255.75;4992338;28;20081;-83
2022/03/19 00:27:49;;;;;;;41.35;14.98;;;;;;;-0.08;48.05;97154.97;4985367;28;20033;-83
2022/03/19 00:30:15;;;;;;;38.10;14.23;;;;;;;0.30;48.09;97231.09;4997335;28;20022;-83
2022/03/19 00:32:41;;;;;;;38.90;15.77;;;;;;;-0.50;47.96;97102.03;4960937;28;20134;-83
2022/03/19 00:35:10;;;;;;;37.45;15.30;;;;;;;-0.46;48.01;97122.41;4986400;28;20089;-83
2022/03/19 00:37:46;;;;;;;39.72;16.70;;;;;;;-0.18;48.18;97153.50;4993310;28;20029;-83
2022/03/19 00:40:14;;;;;;;40.90;14.98;;;;;;;0.28;48.32;97219.97;4972758;28;20031;-83
2022/03/19 00:42:39;;;;;;;35.53;15.90;;;;;;;-0.01;48.10;97178.66;4971892;28;20169;-83
2022/03/19 00:45:06;;;;;;;36.22;16.35;;;;;;;0.27;48.30;97221.78;4971528;28;20450;-83
2022/03/19 00:47:31;;;;;;;44.22;16.60;;;;;;;-0.04;48.47;97174.56;4984038;28;20416;-83
2022/03/19 00:49:57;;;;;;;41.38;16.60;;;;;;;-0.56;48.43;97100.06;5004660;28;20038;-83
2022/03/19 00:52:22;;;;;;;40.95;19.13;;;;;;;0.22;48.41;97231.06;4982296;28;20744;-83
2022/03/19 00:54:48;;;;;;;64.57;21.88;;;;;;;-0.50;48.26;97105.47;5010636;28;20100;-83
2022/03/19 00:57:13;;;;;;;59.70;20.42;;;;;;;-1.78;47.99;96901.66;5011268;28;20404;-83
2022/03/19 00:59:39;;;;;;;55.92;21.90;;;;;;;0.20;47.84;97226.00;5013133;28;20572;-83
2022/03/19 01:02:05;;;;;;;56.97;24.38;;;;;;;0.17;47.54;97226.28;5031433;28;20033;-83
2022/03/19 01:04:30;;;;;;;59.88;24.17;;;;;;;-0.01;47.53;97225.59;5031505;28;20029;-83
2022/03/19 01:06:56;;;;;;;55.83;24.85;;;;;;;-1.73;47.63;96963.63;5012897;28;20033;-83
2022/03/19 01:09:21;;;;;;;50.83;21.88;;;;;;;-2.62;46.97;96874.63;5031545;28;20100;-83
2022/03/19 01:11:47;;;;;;;56.70;23.75;;;;;;;-0.95;47.13;97091.91;5030892;28;20053;-83
2022/03/19 01:14:12;;;;;;;53.78;22.70;;;;;;;-0.49;47.26;97181.88;5031192;28;20021;-84
2022/03/19 01:16:38;;;;;;;50.80;21.80;;;;;;;-0.97;47.13;97092.06;5030749;28;20068;-84
2022/03/19 01:19:04;;;;;;;57.95;23.13;;;;;;;-0.95;47.62;97124.00;5030419;28;20041;-84
2022/03/19 01:21:29;;;;;;;56.22;21.90;;;;;;;-0.16;48.22;97229.78;5012796;28;20128;-84
2022/03/19 01:23:55;;;;;;;56.13;23.67;;;;;;;-1.57;47.96;96993.16;5012742;28;20026;-84
2022/03/19 01:26:20;;;;;;;52.40;22.13;;;;;;;-0.07;47.81;97270.53;5013417;28;20029;-84
2022/03/19 01:28:46;;;;;;;56.45;24.00;;;;;;;-0.45;48.04;97196.22;5013385;28;20064;-84
2022/03/19 01:31:11;;;;;;;58.95;23.55;;;;;;;-1.64;47.60;96994.72;5031119;28;20030;-84
2022/03/19 01:33:38;;;;;;;68.13;23.75;;;;;;;-1.37;47.67;97018.94;5012519;28;20048;-84
2022/03/19 01:36:04;;;;;;;49.00;21.60;;;;;;;-1.25;48.18;97044.56;5013165;28;20511;-83
2022/03/19 01:38:29;;;;;;;59.67;22.80;;;;;;;-1.27;48.70;97053.50;5012703;28;20022;-84
2022/03/19 01:40:55;;;;;;;57.10;21.20;;;;;;;-0.67;48.28;97142.84;5030480;28;20036;-84
2022/03/19 01:43:20;;;;;;;46.25;20.05;;;;;;;-0.40;48.80;97212.22;5030522;28;20055;-84
2022/03/19 01:45:46;;;;;;;48.55;21.45;;;;;;;-0.55;48.57;97175.50;5030796;28;20034;-84
2022/03/19 01:48:11;;;;;;;47.58;20.88;;;;;;;-1.47;47.93;97015.66;5031146;28;20033;-84
2022/03/19 01:50:37;;;;;;;52.63;20.23;;;;;;;-1.07;48.33;97075.75;5031482;28;20065;-84
2022/03/19 01:53:02;;;;;;;57.17;19.48;;;;;;;-1.33;48.40;97077.53;5013249;28;20041;-83
2022/03/19 01:55:28;;;;;;;47.40;18.45;;;;;;;-0.74;48.93;97222.63;5032290;28;20056;-84
2022/03/19 01:57:56;;;;;;;62.97;21.23;;;;;;;-1.93;49.24;96998.59;5038410;28;20111;-83
2022/03/19 02:00:23;;;;;;;49.95;20.38;;;;;;;-1.37;48.93;97065.78;5035768;28;20022;-83
2022/03/19 02:02:51;;;;;;;51.15;20.35;;;;;;;-0.58;49.59;97207.06;5051594;28;20026;-84
2022/03/19 02:05:19;;;;;;;50.05;20.67;;;;;;;-1.91;49.34;96973.25;5051293;28;20034;-83
2022/03/19 02:07:45;;;;;;;53.25;19.77;;;;;;;-1.78;49.58;97012.69;5031560;28;20025;-84
2022/03/19 02:10:13;;;;;;;45.72;19.85;;;;;;;-2.74;49.35;96887.00;5021260;28;20116;-84
2022/03/19 02:12:40;;;;;;;45.08;19.40;;;;;;;-0.80;50.06;97195.38;5037700;28;20033;-84
2022/03/19 02:15:08;;;;;;;50.63;19.95;;;;;;;-0.71;49.91;97196.25;5036401;28;20052;-84
2022/03/19 02:17:33;;;;;;;61.60;22.60;;;;;;;-3.99;49.77;96683.84;5017215;28;20072;-83
2022/03/19 02:20:01;;;;;;;54.38;20.60;;;;;;;-2.92;50.48;96894.81;5034901;28;20029;-83
2022/03/19 02:22:27;;;;;;;53.80;22.42;;;;;;;-3.98;50.32;96700.19;5034705;28;20715;-84
2022/03/19 02:27:39;;;;;;;41.25;18.92;;;;;;;-0.85;50.16;97200.25;5035065;28;20107;-84
2022/03/19 02:30:07;;;;;;;46.20;18.23;;;;;;;-1.05;50.61;97171.94;5033608;28;20040;-84
2022/03/19 02:32:34;;;;;;;50.55;20.10;;;;;;;-1.78;50.33;97034.31;5015874;28;20643;-84
2022/03/19 02:35:00;;;;;;;46.50;19.85;;;;;;;-1.85;50.06;97024.66;5016806;28;20022;-83
2022/03/19 02:37:25;;;;;;;45.97;18.95;;;;;;;-2.10;50.45;96977.66;5033837;28;20029;-84
2022/03/19 02:39:51;;;;;;;52.33;19.13;;;;;;;-1.09;50.92;97134.97;5033611;28;20105;-84
2022/03/19 02:42:19;;;;;;;48.25;19.52;;;;;;;-1.66;49.86;97024.47;5016258;28;20700;-83
2022/03/19 02:44:45;;;;;;;60.83;21.13;;;;;;;-1.43;49.60;97069.00;5015252;28;20052;-84
2022/03/19 02:47:11;;;;;;;48.45;19.40;;;;;;;-1.59;50.76;97095.72;5016249;28;20030;-84
2022/03/19 02:49:37;;;;;;;50.08;18.63;;;;;;;-0.70;50.51;97210.94;5014942;28;20029;-83
2022/03/19 02:52:03;;;;;;;41.22;18.23;;;;;;;-2.48;50.10;96957.22;5034475;28;20030;-83
2022/03/19 02:54:30;;;;;;;46.05;18.20;;;;;;;-1.38;50.37;97155.28;5016101;28;20029;-83
2022/03/19 02:56:56;;;;;;;42.85;19.00;;;;;;;-1.53;49.74;97102.13;5015594;28;20025;-83
2022/03/19 02:59:25;;;;;;;47.83;20.05;;;;;;;-2.23;49.31;96984.22;5033408;28;20092;-83
2022/03/19 03:01:52;;;;;;;46.72;19.52;;;;;;;-0.86;49.20;97203.00;5033873;28;20029;-83
2022/03/19 03:04:18;;;;;;;44.17;20.10;;;;;;;-2.06;49.85;97038.00;5015674;28;20034;-83
2022/03/19 03:06:46;;;;;;;50.60;20.42;;;;;;;-1.64;49.77;97127.41;5015551;28;20033;-83
2022/03/19 03:09:12;;;;;;;54.72;23.10;;;;;;;-2.14;50.69;97108.09;5032674;28;20037;-83
2022/03/19 03:11:39;;;;;;;57.13;23.02;;;;;;;-1.93;50.04;97077.44;5033176;28;20044;-83
2022/03/19 03:14:06;;;;;;;51.30;22.08;;;;;;;-2.23;50.38;97044.00;5015315;28;20067;-83
2022/03/19 03:16:33;;;;;;;53.67;22.35;;;;;;;-2.24;50.35;97035.38;5015382;28;20018;-83
2022/03/19 03:19:01;;;;;;;53.08;21.33;;;;;;;-1.34;50.37;97213.84;5014991;28;20065;-83
2022/03/19 03:21:27;;;;;;;46.55;22.00;;;;;;;-1.91;51.19;97145.72;5014899;28;20580;-83
2022/03/19 03:23:56;;;;;;;52.75;20.90;;;;;;;-2.20;51.28;97132.88;5015661;28;20025;-83
2022/03/19 03:26:22;;;;;;;40.88;19.60;;;;;;;-1.82;51.58;97203.81;5032491;28;20519;-83
2022/03/19 03:28:48;;;;;;;44.05;19.58;;;;;;;-1.85;51.35;97228.34;5033466;28;20535;-83
2022/03/19 03:31:13;;;;;;;40.47;18.55;;;;;;;-2.28;51.21;97134.56;5014935;28;20053;-84
2022/03/19 03:33:39;;;;;;;39.28;17.60;;;;;;;-2.57;50.38;97062.00;5014707;28;20029;-83
2022/03/19 03:36:05;;;;;;;43.20;17.23;;;;;;;-1.44;50.75;97213.94;5033074;28;20033;-83
2022/03/19 03:38:31;;;;;;;44.42;19.13;;;;;;;-1.82;50.59;97142.19;5032895;28;20033;-83
2022/03/19 03:40:57;;;;;;;45.33;19.10;;;;;;;-2.11;50.34;97100.81;5014613;28;20037;-83
2022/03/19 03:43:22;;;;;;;43.13;18.33;;;;;;;-2.17;50.68;97117.00;5014798;28;20580;-83
2022/03/19 03:45:48;;;;;;;52.25;17.88;;;;;;;-3.70;51.73;96900.59;5014184;28;20038;-83
2022/03/19 03:48:14;;;;;;;48.08;19.55;;;;;;;-1.66;51.49;97210.00;5014226;28;20108;-83
2022/03/19 03:50:40;;;;;;;40.00;17.85;;;;;;;-3.22;51.55;96955.66;5014473;28;20114;-83
2022/03/19 03:53:06;;;;;;;42.47;17.98;;;;;;;-2.22;51.96;97142.63;5013941;28;20436;-83
2022/03/19 03:55:33;;;;;;;42.05;18.75;;;;;;;-1.59;51.74;97205.00;5014254;28;20079;-83
2022/03/19 03:57:59;;;;;;;45.42;18.63;;;;;;;-2.25;52.07;97121.31;5014157;28;20045;-83
2022/03/19 04:00:25;;;;;;;42.45;19.20;;;;;;;-2.14;52.02;97113.31;5015613;28;20112;-85
2022/03/19 04:02:52;;;;;;;39.65;17.85;;;;;;;-1.41;51.55;97207.63;5033339;28;20095;-83
2022/03/19 04:05:17;;;;;;;50.55;19.90;;;;;;;-3.14;51.87;96953.16;5014705;28;20092;-83
2022/03/19 04:07:43;;;;;;;45.47;18.15;;;;;;;-1.90;51.97;97164.72;5014729;28;20665;-83
2022/03/19 04:10:08;;;;;;;49.63;18.85;;;;;;;-2.40;52.26;97059.44;5032626;28;20087;-83
2022/03/19 04:12:35;;;;;;;50.17;18.95;;;;;;;-2.66;52.59;97034.28;5032087;28;20033;-84
2022/03/19 04:15:00;;;;;;;44.15;18.80;;;;;;;-2.47;52.21;97040.22;5014241;28;20017;-84
2022/03/19 04:17:26;;;;;;;44.97;19.40;;;;;;;-2.24;52.22;97091.75;5031755;28;20040;-83
2022/03/19 04:19:51;;;;;;;56.28;23.63;;;;;;;-2.74;52.93;97019.44;5030115;28;20037;-83
2022/03/19 04:22:17;;;;;;;74.53;35.92;;;;;;;-1.93;53.35;97178.84;5014239;28;20029;-83
2022/03/19 04:24:42;;;;;;;66.93;30.70;;;;;;;-1.67;53.29;97200.53;5013993;28;20389;-83
2022/03/19 04:27:09;;;;;;;68.72;29.50;;;;;;;-1.56;53.04;97246.34;5031804;28;20067;-83
2022/03/19 04:29:34;;;;;;;66.22;29.30;;;;;;;-2.64;53.32;97041.00;5014535;28;20029;-83
2022/03/19 04:32:00;;;;;;;59.00;27.17;;;;;;;-2.36;53.26;97104.13;5014456;28;20040;-82
2022/03/19 04:34:25;;;;;;;47.20;22.38;;;;;;;-2.64;53.06;97053.16;5014152;28;20033;-84
2022/03/19 04:36:51;;;;;;;47.47;20.35;;;;;;;-1.60;53.89;97235.41;5014302;28;20665;-83
2022/03/19 04:39:16;;;;;;;50.72;20.98;;;;;;;-2.66;54.24;97055.06;5031549;28;20047;-84
2022/03/19 04:41:42;;;;;;;48.83;19.88;;;;;;;-1.67;54.62;97216.16;5013957;28;20083;-83
2022/03/19 04:44:08;;;;;;;47.40;20.33;;;;;;;-1.57;54.29;97221.28;5013816;28;20025;-83
2022/03/19 04:46:34;;;;;;;55.45;21.25;;;;;;;-2.45;54.76;97097.22;5013476;28;20039;-83
2022/03/19 04:49:00;;;;;;;54.10;21.42;;;;;;;-1.68;54.83;97224.91;5013686;28;20029;-83
2022/03/19 04:51:30;;;;;;;58.55;22.15;;;;;;;-1.72;55.22;97215.78;5031136;28;20029;-83
2022/03/19 04:53:56;;;;;;;52.15;21.90;;;;;;;-2.46;54.54;97080.00;5030600;28;20028;-83
2022/03/19 04:56:28;;;;;;;60.75;21.83;;;;;;;-2.97;54.64;97010.41;5013557;28;20503;-83
2022/03/19 04:58:56;;;;;;;54.08;21.65;;;;;;;-2.87;54.30;97014.59;5030942;28;20585;-83
2022/03/19 05:01:27;;;;;;;60.83;23.80;;;;;;;-2.35;54.04;97083.19;5030695;28;20033;-83
2022/03/19 05:03:53;;;;;;;54.95;22.25;;;;;;;-2.65;54.22;97039.34;5031263;28;20602;-84
2022/03/19 05:06:19;;;;;;;60.40;22.52;;;;;;;-1.80;54.04;97187.09;5013487;28;20044;-84
2022/03/19 05:08:44;;;;;;;52.35;22.17;;;;;;;-2.44;53.69;97097.06;5031500;28;20037;-84
2022/03/19 05:11:13;;;;;;;63.15;26.15;;;;;;;-2.31;53.86;97134.88;5013745;28;20031;-84
2022/03/19 05:13:47;;;;;;;67.30;26.85;;;;;;;-2.49;54.01;97124.44;5014307;28;20025;-84
2022/03/19 05:16:13;;;;;;;62.58;25.08;;;;;;;-2.44;53.31;97106.66;5031518;28;20128;-84
2022/03/19 05:18:39;;;;;;;54.88;24.30;;;;;;;-3.04;53.39;97033.53;5031474;28;20057;-84
2022/03/19 05:21:04;;;;;;;53.88;21.02;;;;;;;-3.85;52.59;96891.66;5014607;28;20033;-84
2022/03/19 05:23:31;;;;;;;54.08;20.13;;;;;;;-1.91;52.41;97186.50;5014324;28;20033;-84
2022/03/19 05:25:57;;;;;;;54.17;18.63;;;;;;;-1.98;52.17;97179.25;5032253;28;20076;-84
2022/03/19 05:28:23;;;;;;;43.10;17.35;;;;;;;-2.66;51.63;97061.09;5015411;28;20029;-84
2022/03/19 05:30:48;;;;;;;33.72;15.18;;;;;;;-2.25;50.69;97129.91;5017522;28;20037;-83
2022/03/19 05:33:15;;;;;;;32.78;15.68;;;;;;;-1.49;50.37;97239.59;5021653;28;20067;-84
2022/03/19 05:35:41;;;;;;;36.38;14.45;;;;;;;-1.80;50.75;97226.09;5038492;28;20053;-83
2022/03/19 05:38:07;;;;;;;37.63;14.43;;;;;;;-2.57;50.62;97081.00;5018994;28;20022;-84
2022/03/19 05:40:33;;;;;;;34.95;13.95;;;;;;;-2.56;50.25;97074.03;5035722;28;20090;-84
2022/03/19 05:42:59;;;;;;;36.85;15.07;;;;;;;-2.41;50.71;97101.16;5035387;28;20030;-84
2022/03/19 05:45:25;;;;;;;36.13;16.42;;;;;;;-2.18;50.31;97114.53;5017339;28;20026;-84
2022/03/19 05:47:50;;;;;;;43.75;16.23;;;;;;;-2.78;50.57;97037.13;5017429;28;20183;-84
2022/03/19 05:50:16;;;;;;;39.28;16.20;;;;;;;-2.55;50.63;97041.91;5017798;28;20025;-84
2022/03/19 05:52:45;;;;;;;34.22;16.75;;;;;;;-2.01;50.17;97124.16;5017128;28;20044;-84
2022/03/19 05:55:11;;;;;;;44.10;17.23;;;;;;;-1.34;50.57;97237.28;5017176;28;20057;-84
2022/03/19 05:57:36;;;;;;;44.13;18.05;;;;;;;-2.46;50.76;97056.63;5035038;28;20050;-83
2022/03/19 06:00:07;;;;;;;39.85;18.80;;;;;;;-2.69;51.38;97017.25;5017767;28;20033;-83
2022/03/19 06:02:38;;;;;;;38.60;16.48;;;;;;;-1.25;51.51;97255.44;5016947;28;20029;-83
2022/03/19 06:05:04;;;;;;;36.95;16.30;;;;;;;-2.80;51.26;96997.47;5017294;28;20033;-83
2022/03/19 06:07:29;;;;;;;37.17;16.60;;;;;;;-1.50;51.98;97218.91;5034395;28;20067;-83
2022/03/19 06:09:55;;;;;;;40.22;17.98;;;;;;;-2.02;51.18;97112.13;5016159;28;20046;-83
2022/03/19 06:12:21;;;;;;;39.92;17.48;;;;;;;-2.76;51.57;96978.06;5015660;28;20095;-83
2022/03/19 06:14:49;;;;;;;40.97;18.33;;;;;;;-3.89;50.85;96847.06;5034729;28;20026;-83
2022/03/19 06:17:14;;;;;;;48.75;17.05;;;;;;;-1.28;51.19;97224.50;5034325;28;20087;-84
2022/03/19 06:19:39;;;;;;;50.85;19.52;;;;;;;-4.02;50.64;96798.13;5016471;28;20030;-84
2022/03/19 06:22:05;;;;;;;76.97;26.15;;;;;;;-1.95;50.48;97152.97;5034314;28;20036;-84
2022/03/19 06:24:30;;;;;;;66.75;23.73;;;;;;;-3.27;50.30;96899.94;5034327;28;20030;-85
2022/03/19 06:26:56;;;;;;;44.78;17.92;;;;;;;-3.97;49.29;96756.25;5001551;28;20550;-82
2022/03/19 06:29:22;;;;;;;43.13;17.33;;;;;;;-1.73;49.06;97117.09;5013448;28;20029;-83
2022/03/19 06:31:48;;;;;;;42.83;17.77;;;;;;;-1.05;49.33;97231.81;4996669;28;21738;-83
2022/03/19 06:34:13;;;;;;;45.58;18.48;;;;;;;-2.00;48.53;97073.78;5014086;28;20053;-83
2022/03/19 06:39:23;;;;;;;41.15;17.75;;;;;;;-0.99;49.03;97216.41;5014972;28;20700;-84
2022/03/19 06:41:48;;;;;;;44.65;17.58;;;;;;;-1.56;48.45;97096.25;4995656;28;20049;-83
2022/03/19 06:44:14;;;;;;;34.58;16.75;;;;;;;-2.09;47.92;96996.69;5013240;28;20026;-83
2022/03/19 06:46:40;;;;;;;46.63;17.90;;;;;;;-1.05;47.85;97171.94;4996165;28;20608;-83
2022/03/19 06:49:05;;;;;;;49.30;18.52;;;;;;;-1.76;47.99;97052.38;5013145;28;20033;-83
2022/03/19 06:51:31;;;;;;;36.17;16.58;;;;;;;-1.35;47.41;97093.31;4994952;28;20037;-82
2022/03/19 06:53:57;;;;;;;39.08;17.63;;;;;;;-1.97;47.46;97022.28;4994957;28;20026;-83
2022/03/19 06:56:22;;;;;;;38.58;16.48;;;;;;;-0.47;46.81;97206.00;5011976;28;20492;-83
2022/03/19 06:58:48;;;;;;;27.50;14.85;;;;;;;-1.48;46.65;97043.47;4999489;28;20525;-83
2022/03/19 07:01:16;;;;;;;41.20;17.27;;;;;;;-1.15;46.73;97093.13;4991960;28;20041;-83
2022/03/19 07:03:43;;;;;;;34.97;16.88;;;;;;;-0.85;46.82;97139.53;4992119;28;20046;-83
2022/03/19 07:06:09;;;;;;;38.03;15.88;;;;;;;-0.90;47.29;97154.78;4993721;28;20046;-83
2022/03/19 07:08:35;;;;;;;38.63;17.48;;;;;;;-1.29;47.23;97076.25;4993655;28;20570;-84
2022/03/19 07:11:00;;;;;;;46.50;17.67;;;;;;;-0.96;47.78;97151.00;4994024;28;20061;-83
2022/03/19 07:13:25;;;;;;;39.67;18.25;;;;;;;-0.90;47.85;97178.22;4993331;28;20039;-83
2022/03/19 07:15:51;;;;;;;36.17;16.30;;;;;;;-1.52;48.00;97083.75;4992487;28;20046;-83
2022/03/19 07:18:16;;;;;;;37.17;16.90;;;;;;;-0.81;47.41;97165.09;4991726;28;20084;-83
2022/03/19 07:20:42;;;;;;;51.45;18.55;;;;;;;-1.09;47.38;97115.94;4992000;28;20655;-83
2022/03/19 07:23:07;;;;;;;48.63;18.67;;;;;;;-0.41;47.38;97198.38;4993965;28;20034;-83
2022/03/19 07:25:36;;;;;;;47.13;18.17;;;;;;;-1.13;46.97;97070.31;4992483;28;20062;-83
2022/03/19 07:28:04;;;;;;;38.83;17.05;;;;;;;-1.18;46.46;97102.88;4994148;28;20489;-83
2022/03/19 07:30:30;;;;;;;46.42;17.23;;;;;;;-1.41;46.32;97028.03;4992933;28;20033;-83
2022/03/19 07:32:56;;;;;;;32.90;16.60;;;;;;;-0.76;46.29;97107.31;4993057;28;20489;-84
2022/03/19 07:35:21;;;;;;;36.42;16.77;;;;;;;-3.49;46.34;96659.97;4992882;28;20030;-83
2022/03/19 07:37:48;;;;;;;37.25;16.08;;;;;;;0.11;45.65;97215.69;4991594;28;20065;-84
2022/03/19 07:43:04;;;;;;;41.63;17.88;;;;;;;-0.51;46.67;97137.72;4993112;28;20619;-83
2022/03/19 07:45:30;;;;;;;45.10;20.15;;;;;;;-0.93;46.67;97056.13;4991347;28;20492;-83
2022/03/19 07:47:56;;;;;;;46.05;20.80;;;;;;;0.14;46.22;97231.84;4993242;28;20118;-83
2022/03/19 07:50:22;;;;;;;45.30;19.17;;;;;;;-0.33;46.02;97110.75;4991703;28;20042;-83
2022/03/19 07:52:48;;;;;;;36.92;17.48;;;;;;;-0.38;45.52;97142.47;4992718;28;20041;-83
2022/03/19 07:55:13;;;;;;;38.97;17.25;;;;;;;-0.70;45.20;97056.38;4992539;28;20038;-83
2022/03/19 07:57:39;;;;;;;33.75;17.83;;;;;;;0.21;45.02;97187.66;4991468;28;20054;-83
2022/03/19 08:00:05;;;;;;;41.35;18.95;;;;;;;0.00;44.96;97131.50;4992440;28;20049;-83
2022/03/19 08:02:31;;;;;;;46.63;18.50;;;;;;;0.52;44.97;97209.59;4991207;28;20034;-82
2022/03/19 08:04:58;;;;;;;36.08;17.38;;;;;;;0.02;44.31;97096.63;4983051;28;20045;-83
2022/03/19 08:07:24;;;;;;;39.35;17.80;;;;;;;-0.08;43.61;97055.84;4982976;28;20030;-83
2022/03/19 08:09:49;;;;;;;42.00;17.75;;;;;;;0.44;43.20;97185.25;4982748;28;20095;-84
2022/03/19 08:12:15;;;;;;;43.88;18.00;;;;;;;-0.51;43.15;96996.16;4982373;28;20022;-84
2022/03/19 08:14:41;;;;;;;33.50;17.02;;;;;;;0.72;42.89;97184.78;4998339;28;20034;-84
2022/03/19 08:17:06;;;;;;;43.20;17.77;;;;;;;0.18;42.76;97097.47;4983199;28;20421;-84
2022/03/19 08:19:32;;;;;;;33.25;17.42;;;;;;;0.66;42.75;97150.69;4982061;28;20046;-84
2022/03/19 08:21:57;;;;;;;39.63;19.02;;;;;;;-3.71;42.74;96445.25;4990058;28;20049;-83
2022/03/19 08:24:25;;;;;;;35.45;18.73;;;;;;;0.32;43.25;97051.63;4983460;28;20026;-83
2022/03/19 08:26:53;;;;;;;43.35;20.25;;;;;;;0.13;41.48;97036.31;4983512;28;20041;-84
2022/03/19 08:29:23;;;;;;;42.72;18.45;;;;;;;1.21;43.18;97200.44;4982932;28;20577;-83
2022/03/19 08:31:50;;;;;;;44.55;20.20;;;;;;;0.66;42.46;97091.44;4982435;28;20378;-83
2022/03/19 08:34:16;;;;;;;31.48;17.27;;;;;;;1.43;41.31;97202.38;4983296;28;20031;-83
2022/03/19 08:36:41;;;;;;;35.85;17.85;;;;;;;1.38;41.99;97169.84;4982126;28;20128;-84
2022/03/19 08:41:51;;;;;;;27.90;14.07;;;;;;;0.13;39.45;96947.63;4983481;28;20060;-84
2022/03/19 08:44:16;;;;;;;33.75;15.77;;;;;;;1.31;39.95;97143.56;4981380;28;20124;-84
2022/03/19 08:46:42;;;;;;;30.48;12.88;;;;;;;0.37;39.77;96990.16;4982603;28;20495;-84
2022/03/19 08:49:07;;;;;;;27.63;12.98;;;;;;;0.95;39.38;97066.56;4982235;28;20040;-83
2022/03/19 08:51:42;;;;;;;21.63;11.10;;;;;;;0.98;40.39;97061.84;4982965;28;20049;-83
2022/03/19 08:54:14;;;;;;;20.45;10.18;;;;;;;1.69;39.87;97185.59;4981220;28;20432;-84
2022/03/19 08:56:41;;;;;;;22.58;10.82;;;;;;;1.70;39.63;97182.81;4981506;28;20046;-83
2022/03/19 08:59:07;;;;;;;20.88;12.00;;;;;;;0.28;40.51;96972.06;5000982;28;20111;-84
2022/03/19 09:01:33;;;;;;;25.48;12.35;;;;;;;1.29;39.48;97119.41;5021391;28;20613;-84
2022/03/19 09:03:59;;;;;;;26.60;13.30;;;;;;;0.78;39.67;97043.09;5022172;28;20101;-83
2022/03/19 09:06:25;;;;;;;26.13;12.75;;;;;;;1.23;39.90;97082.63;5003592;28;20435;-81
2022/03/19 09:08:50;;;;;;;28.05;12.32;;;;;;;1.08;39.89;97033.69;5004658;28;20044;-83
2022/03/19 09:11:18;;;;;;;20.25;11.20;;;;;;;0.50;38.85;96960.09;5004907;28;20037;-82
2022/03/19 09:13:47;;;;;;;20.95;11.30;;;;;;;1.30;39.25;97084.41;5022134;28;20048;-83
2022/03/19 09:16:14;;;;;;;27.80;11.65;;;;;;;2.05;40.10;97173.69;5004068;28;20041;-83
2022/03/19 09:18:39;;;;;;;23.83;11.02;;;;;;;1.51;39.10;97091.69;5003998;28;20033;-83
2022/03/19 09:21:05;;;;;;;24.33;11.70;;;;;;;2.07;40.09;97183.97;5022336;28;20045;-83
2022/03/19 09:23:31;;;;;;;20.45;11.27;;;;;;;1.22;39.36;97000.81;5021449;28;20026;-84
2022/03/19 09:25:56;;;;;;;29.20;12.70;;;;;;;1.50;40.23;97059.50;5003534;28;20021;-84
2022/03/19 09:28:22;;;;;;;22.80;11.25;;;;;;;1.46;38.92;97044.31;5004339;28;20605;-84
2022/03/19 09:30:47;;;;;;;20.95;11.20;;;;;;;2.10;39.40;97132.09;5022086;28;20052;-84
2022/03/19 09:33:13;;;;;;;21.50;11.68;;;;;;;1.59;40.31;97056.84;5021702;28;20037;-83
2022/03/19 09:35:38;;;;;;;20.50;11.32;;;;;;;1.59;38.63;97005.38;5021963;28;20865;-83
2022/03/19 09:38:04;;;;;;;27.80;11.80;;;;;;;1.80;38.18;97004.75;5004641;28;20037;-84
2022/03/19 09:40:30;;;;;;;26.35;12.05;;;;;;;2.51;39.37;97096.00;5005247;28;20468;-84
2022/03/19 09:42:59;;;;;;;27.27;11.43;;;;;;;2.75;38.20;97125.59;5022805;28;20049;-84
2022/03/19 09:45:27;;;;;;;27.52;12.30;;;;;;;2.96;37.67;97152.75;5004291;28;20485;-84
2022/03/19 09:47:53;;;;;;;23.77;11.80;;;;;;;2.34;38.95;97034.25;5022769;28;20720;-84
2022/03/19 09:50:20;;;;;;;20.45;11.65;;;;;;;3.16;38.67;97158.28;5022140;28;20441;-84
2022/03/19 09:52:50;;;;;;;21.00;10.43;;;;;;;2.62;38.05;97066.75;5004237;28;20040;-83
2022/03/19 09:55:17;;;;;;;22.02;11.88;;;;;;;2.75;37.87;97058.25;5004346;28;20068;-84
2022/03/19 09:57:43;;;;;;;25.58;10.57;;;;;;;2.47;37.70;97008.28;5003186;28;20072;-84
2022/03/19 10:00:11;;;;;;;19.30;11.05;;;;;;;3.20;36.70;97109.75;5021496;28;20045;-84
2022/03/19 10:02:56;;;;;;;25.83;12.68;;;;;;;3.47;35.17;97155.50;5003976;28;20082;-84
2022/03/19 10:10:51;;;;;;;22.63;11.05;;;;;;;4.11;34.76;97148.66;5031301;28;20036;-84
2022/03/19 10:13:16;;;;;;;22.38;10.27;;;;;;;3.77;33.82;97019.84;5021795;28;20056;-84
2022/03/19 10:15:43;;;;;;;22.73;11.18;;;;;;;4.88;32.36;97066.50;5004567;28;20029;-83
2022/03/19 10:18:09;;;;;;;19.35;9.70;;;;;;;5.81;31.81;97073.88;5024807;28;20033;-82
2022/03/19 10:20:36;;;;;;;23.38;10.45;;;;;;;6.20;32.27;97096.91;5026067;28;20104;-85
2022/03/19 10:23:02;;;;;;;17.50;9.75;;;;;;;5.61;29.87;96991.41;5007583;28;20087;-83
2022/03/19 10:25:28;;;;;;;21.13;9.70;;;;;;;6.93;29.51;97161.13;5007496;28;20040;-83
2022/03/19 10:28:01;;;;;;;23.63;10.52;;;;;;;7.30;29.35;97099.00;5024864;28;20767;-83
2022/03/19 10:30:38;;;;;;;15.75;9.82;;;;;;;8.11;28.25;97152.19;5025640;28;20036;-84
2022/03/19 10:33:06;;;;;;;23.58;10.40;;;;;;;8.73;28.67;97148.03;5028031;28;20037;-84
2022/03/19 10:35:34;;;;;;;21.27;10.35;;;;;;;8.10;26.96;97052.78;5006835;28;20526;-85
2022/03/19 10:38:16;;;;;;;20.42;9.98;;;;;;;7.85;27.08;96968.19;5024958;28;20530;-84
2022/03/19 10:40:48;;;;;;;23.45;10.32;;;;;;;8.67;26.97;97139.09;5026105;28;20087;-84
2022/03/19 10:43:16;;;;;;;14.25;9.05;;;;;;;7.88;26.42;97015.31;5024688;28;20132;-83
2022/03/19 10:45:44;;;;;;;23.23;9.55;;;;;;;8.68;26.11;97056.09;5006014;28;20723;-84
2022/03/19 10:48:12;;;;;;;24.80;10.63;;;;;;;8.65;26.02;97021.31;5023796;28;20418;-84
2022/03/19 10:50:41;;;;;;;16.67;9.77;;;;;;;9.61;26.30;97154.81;5006130;28;20032;-83
2022/03/19 10:53:07;;;;;;;19.13;9.95;;;;;;;8.68;25.81;97026.19;5006221;28;20124;-83
2022/03/19 10:55:33;;;;;;;19.33;10.02;;;;;;;9.81;25.41;97144.03;5023750;28;20104;-83
2022/03/19 10:57:58;;;;;;;16.17;9.40;;;;;;;8.98;25.88;96990.09;5023316;28;20124;-83
2022/03/19 11:00:24;;;;;;;20.95;9.50;;;;;;;8.86;25.94;97005.03;5005497;28;20034;-84
2022/03/19 11:02:54;;;;;;;19.02;10.55;;;;;;;9.65;25.34;97137.47;5025613;28;20037;-84
2022/03/19 11:05:23;;;;;;;20.70;9.95;;;;;;;8.95;25.42;96993.16;5024869;28;20037;-83
2022/03/19 11:07:51;;;;;;;20.08;10.18;;;;;;;9.62;25.86;97132.59;5023620;28;20047;-84
2022/03/19 11:10:19;;;;;;;15.23;9.25;;;;;;;8.87;25.56;97102.72;5006345;28;20041;-83
2022/03/19 11:12:50;;;;;;;20.73;10.25;;;;;;;9.54;25.83;97130.22;5006577;28;20041;-83
2022/03/19 11:15:18;;;;;;;15.43;7.47;;;;;;;9.24;25.36;97089.59;5005697;28;20028;-83
2022/03/19 11:17:47;;;;;;;21.73;9.35;;;;;;;9.93;25.45;97118.38;5005894;28;20045;-83
2022/03/19 11:20:13;;;;;;;16.92;8.60;;;;;;;9.06;25.58;97012.81;5004333;28;20033;-85
2022/03/19 11:22:46;;;;;;;16.20;9.13;;;;;;;9.73;25.07;97085.22;5005326;28;20033;-84
2022/03/19 11:25:34;;;;;;;14.98;9.48;;;;;;;9.82;25.42;97128.94;5023041;28;20049;-84
2022/03/19 11:28:02;;;;;;;19.67;10.15;;;;;;;9.93;25.50;97093.72;5004938;28;20126;-84
2022/03/19 11:30:40;;;;;;;23.77;10.25;;;;;;;9.51;26.33;97053.88;5005709;28;20705;-84
2022/03/19 11:33:19;;;;;;;20.30;9.23;;;;;;;10.12;25.98;97126.34;5023215;28;20041;-84